Time;durP1;ratioP1;P1;durP2;ratioP2;P2;SDS_P1;SDS_P2;PMS_P1;PMS_P2;Temp;Humidity;BMP_temperature;BMP_pressure;BME280_temperature;BME280_humidity;BME280_pressure;Samples;Min_cycle;Max_cycle;Signal;HPM_P1;HPM_P2
2022/01/14 00:01:32;;;;;;;;;77.75;59.00;;;;;;;;5069752;28;45458;-64
2022/01/14 00:03:57;;;;;;;;;89.25;66.50;;;;;;;;5065421;28;46187;-64
2022/01/14 00:06:22;;;;;;;;;86.50;68.25;;;;;;;;5064333;28;45486;-64
2022/01/14 00:08:49;;;;;;;;;80.00;61.75;;;;;;;;5060782;28;45407;-64
2022/01/14 00:11:16;;;;;;;;;76.75;59.25;;;;;;;;5062585;27;45538;-64
2022/01/14 00:13:58;;;;;;;;;84.00;61.50;;;;;;;;5065692;28;46248;-64
2022/01/14 00:16:23;;;;;;;;;78.25;62.00;;;;;;;;5072289;28;45880;-65
2022/01/14 00:18:48;;;;;;;;;72.00;59.00;;;;;;;;5065368;28;45847;-66
2022/01/14 00:21:14;;;;;;;;;74.50;61.00;;;;;;;;5064506;28;45444;-65
2022/01/14 00:23:41;;;;;;;;;71.50;56.50;;;;;;;;5065523;28;45644;-64
2022/01/14 00:34:05;;;;;;;;;76.25;61.25;;;;;;;;5071354;28;45818;-65
2022/01/14 00:36:30;;;;;;;;;75.50;62.25;;;;;;;;5067545;28;45449;-64
2022/01/14 00:38:56;;;;;;;;;75.25;60.50;;;;;;;;5062727;28;45496;-64
2022/01/14 00:41:21;;;;;;;;;79.25;63.50;;;;;;;;5069974;28;45522;-64
2022/01/14 00:43:46;;;;;;;;;75.00;59.25;;;;;;;;5059932;28;45463;-64
2022/01/14 00:46:13;;;;;;;;;80.75;63.00;;;;;;;;5073321;27;45463;-64
2022/01/14 00:48:38;;;;;;;;;73.25;59.75;;;;;;;;5068080;28;45405;-65
2022/01/14 00:51:04;;;;;;;;;76.00;60.50;;;;;;;;5067869;27;45534;-65
2022/01/14 00:53:29;;;;;;;;;78.75;62.75;;;;;;;;5063912;28;45692;-64
2022/01/14 00:56:05;;;;;;;;;75.50;60.50;;;;;;;;5068832;28;45345;-64
2022/01/14 01:01:14;;;;;;;;;78.00;61.50;;;;;;;;5061986;28;45560;-64
2022/01/14 01:03:40;;;;;;;;;78.75;61.50;;;;;;;;5065169;28;47532;-64
2022/01/14 01:06:06;;;;;;;;;74.25;60.00;;;;;;;;5063890;28;45505;-64
2022/01/14 01:08:33;;;;;;;;;75.50;60.50;;;;;;;;5058571;28;45424;-63
2022/01/14 01:10:58;;;;;;;;;76.00;59.50;;;;;;;;5069726;27;46188;-64
2022/01/14 01:13:32;;;;;;;;;78.25;60.75;;;;;;;;5072669;28;45419;-64
2022/01/14 01:15:57;;;;;;;;;71.75;56.50;;;;;;;;5071988;28;46421;-63
2022/01/14 01:18:22;;;;;;;;;77.00;60.75;;;;;;;;5070974;27;45348;-64
2022/01/14 01:20:48;;;;;;;;;70.75;56.25;;;;;;;;5068866;27;45780;-64
2022/01/14 01:23:14;;;;;;;;;75.75;60.00;;;;;;;;5068628;27;45992;-65
2022/01/14 01:25:44;;;;;;;;;80.50;62.50;;;;;;;;5069373;28;45348;-62
2022/01/14 01:28:10;;;;;;;;;71.75;57.75;;;;;;;;5070919;28;45432;-63
2022/01/14 01:33:01;;;;;;;;;70.25;57.25;;;;;;;;5070421;28;45587;-65
2022/01/14 01:35:27;;;;;;;;;79.75;59.75;;;;;;;;5069215;27;45710;-64
2022/01/14 01:37:52;;;;;;;;;72.00;57.25;;;;;;;;5069261;28;45451;-65
2022/01/14 01:40:19;;;;;;;;;73.00;59.25;;;;;;;;5071755;28;45612;-64
2022/01/14 01:42:45;;;;;;;;;69.50;53.25;;;;;;;;5069969;27;45658;-65
2022/01/14 01:45:14;;;;;;;;;72.50;57.50;;;;;;;;5068591;28;46634;-65
2022/01/14 01:47:39;;;;;;;;;69.00;57.25;;;;;;;;5067979;28;45606;-65
2022/01/14 01:50:12;;;;;;;;;76.00;60.25;;;;;;;;5068961;28;45634;-64
2022/01/14 01:52:38;;;;;;;;;64.25;53.00;;;;;;;;5070327;28;46160;-64
2022/01/14 01:55:03;;;;;;;;;67.75;54.25;;;;;;;;5071905;28;45476;-64
2022/01/14 01:57:29;;;;;;;;;76.00;59.00;;;;;;;;5070166;27;45635;-64
2022/01/14 01:59:54;;;;;;;;;74.75;56.00;;;;;;;;5069165;28;45625;-64
2022/01/14 02:02:20;;;;;;;;;68.25;56.25;;;;;;;;5066816;27;45631;-64
2022/01/14 02:04:45;;;;;;;;;70.75;57.25;;;;;;;;5061023;28;45447;-64
2022/01/14 02:07:10;;;;;;;;;73.75;59.25;;;;;;;;5071288;27;45369;-64
2022/01/14 02:09:35;;;;;;;;;69.25;56.00;;;;;;;;5049831;28;45490;-63
2022/01/14 02:12:08;;;;;;;;;70.75;54.25;;;;;;;;5063196;28;46504;-64
2022/01/14 02:17:17;;;;;;;;;68.25;54.50;;;;;;;;5070283;27;45542;-64
2022/01/14 02:22:10;;;;;;;;;54.25;40.00;;;;;;;;5068417;28;45425;-63
2022/01/14 02:22:45;;;;;;;;;67.25;55.50;;;;;;;;5066517;28;45538;-64
2022/01/14 02:25:11;;;;;;;;;69.50;56.00;;;;;;;;5069749;27;45683;-64
2022/01/14 02:27:37;;;;;;;;;66.75;53.75;;;;;;;;5067299;28;45484;-64
2022/01/14 02:30:05;;;;;;;;;71.25;55.00;;;;;;;;5069298;27;45539;-65
2022/01/14 02:32:30;;;;;;;;;70.75;56.75;;;;;;;;5069722;27;45833;-64
2022/01/14 02:34:55;;;;;;;;;67.50;57.25;;;;;;;;5069990;28;45494;-63
2022/01/14 02:37:20;;;;;;;;;64.25;53.00;;;;;;;;5069515;28;45426;-65
2022/01/14 02:39:46;;;;;;;;;60.50;49.50;;;;;;;;5069485;27;45631;-63
2022/01/14 02:42:11;;;;;;;;;69.25;55.75;;;;;;;;5068018;28;47403;-63
2022/01/14 02:44:36;;;;;;;;;71.00;58.25;;;;;;;;5069345;27;45504;-63
2022/01/14 02:47:05;;;;;;;;;71.25;54.75;;;;;;;;5070134;27;45899;-63
2022/01/14 02:49:33;;;;;;;;;66.50;55.00;;;;;;;;5071068;28;45519;-64
2022/01/14 02:51:59;;;;;;;;;70.50;57.00;;;;;;;;5070086;28;48088;-65
2022/01/14 02:55:02;;;;;;;;;61.75;52.25;;;;;;;;5066855;28;45404;-64
2022/01/14 02:57:19;;;;;;;;;71.25;57.25;;;;;;;;5066937;27;45930;-64
2022/01/14 02:59:45;;;;;;;;;72.75;57.00;;;;;;;;5069706;27;45458;-64
2022/01/14 03:02:11;;;;;;;;;70.50;57.50;;;;;;;;5069574;27;46454;-64
2022/01/14 03:04:39;;;;;;;;;73.25;59.00;;;;;;;;5069799;28;45601;-64
2022/01/14 03:07:05;;;;;;;;;71.25;58.25;;;;;;;;5071275;28;45896;-64
2022/01/14 03:09:30;;;;;;;;;76.25;62.25;;;;;;;;5069261;27;45637;-64
2022/01/14 03:11:59;;;;;;;;;73.25;54.75;;;;;;;;5069167;27;46665;-64
2022/01/14 03:14:25;;;;;;;;;66.50;55.75;;;;;;;;5069566;27;45565;-64
2022/01/14 03:16:51;;;;;;;;;67.75;55.25;;;;;;;;5067360;28;45503;-63
2022/01/14 03:19:21;;;;;;;;;69.25;56.00;;;;;;;;5070584;27;45472;-63
2022/01/14 03:21:49;;;;;;;;;68.50;54.50;;;;;;;;5072602;27;46961;-63
2022/01/14 03:24:19;;;;;;;;;72.50;57.50;;;;;;;;5070187;28;46110;-63
2022/01/14 03:26:45;;;;;;;;;73.50;58.25;;;;;;;;5072879;27;45413;-65
2022/01/14 03:29:11;;;;;;;;;74.50;61.25;;;;;;;;5072358;27;45494;-65
2022/01/14 03:31:36;;;;;;;;;68.00;56.25;;;;;;;;5071324;28;47606;-65
2022/01/14 03:34:01;;;;;;;;;69.75;56.50;;;;;;;;5072371;28;45707;-65
2022/01/14 03:36:27;;;;;;;;;68.25;55.75;;;;;;;;5072694;27;45443;-64
2022/01/14 03:38:52;;;;;;;;;70.25;57.00;;;;;;;;5072179;28;45416;-64
2022/01/14 03:41:17;;;;;;;;;75.00;59.00;;;;;;;;5071204;28;47745;-64
2022/01/14 03:43:42;;;;;;;;;74.00;57.00;;;;;;;;5072829;28;45412;-64
2022/01/14 03:46:08;;;;;;;;;72.25;57.25;;;;;;;;5073232;28;45798;-64
2022/01/14 03:48:33;;;;;;;;;74.00;58.00;;;;;;;;5070776;28;45552;-64
2022/01/14 03:50:58;;;;;;;;;73.00;57.50;;;;;;;;5072071;27;45390;-65
2022/01/14 03:53:24;;;;;;;;;69.75;55.25;;;;;;;;5072374;27;45417;-64
2022/01/14 03:55:49;;;;;;;;;73.00;59.00;;;;;;;;5072704;27;45467;-64
2022/01/14 03:58:14;;;;;;;;;71.50;59.25;;;;;;;;5073823;27;45341;-64
2022/01/14 04:00:39;;;;;;;;;72.50;58.00;;;;;;;;5071041;27;46083;-64
2022/01/14 04:03:05;;;;;;;;;77.50;60.75;;;;;;;;5072149;27;45421;-63
2022/01/14 04:05:30;;;;;;;;;72.75;57.50;;;;;;;;5071822;27;45392;-64
2022/01/14 04:07:56;;;;;;;;;71.75;57.50;;;;;;;;5072311;28;45359;-65
2022/01/14 04:10:22;;;;;;;;;75.75;58.00;;;;;;;;5068678;28;46078;-64
2022/01/14 04:17:57;;;;;;;;;73.50;58.25;;;;;;;;5071064;28;45602;-65
2022/01/14 04:20:23;;;;;;;;;69.50;56.25;;;;;;;;5070049;28;47846;-64
2022/01/14 04:22:48;;;;;;;;;70.00;57.50;;;;;;;;5070485;28;45458;-64
2022/01/14 04:25:13;;;;;;;;;77.75;62.75;;;;;;;;5073725;28;45353;-64
2022/01/14 04:27:39;;;;;;;;;75.75;60.50;;;;;;;;5071572;27;45501;-63
2022/01/14 04:30:04;;;;;;;;;46.50;41.75;;;;;;;;5071532;27;45775;-63
2022/01/14 04:32:29;;;;;;;;;69.25;58.25;;;;;;;;5069661;28;45480;-64
2022/01/14 04:34:55;;;;;;;;;75.00;58.00;;;;;;;;5071595;27;45416;-65
2022/01/14 04:37:22;;;;;;;;;75.00;59.25;;;;;;;;5073079;27;45845;-65
2022/01/14 04:39:47;;;;;;;;;73.50;58.25;;;;;;;;5070014;28;48240;-65
2022/01/14 04:42:12;;;;;;;;;76.75;59.75;;;;;;;;5071259;27;45554;-65
2022/01/14 04:44:37;;;;;;;;;75.75;58.50;;;;;;;;5071127;27;45510;-64
2022/01/14 04:47:15;;;;;;;;;72.00;58.25;;;;;;;;5071659;27;45525;-65
2022/01/14 04:49:40;;;;;;;;;74.00;56.75;;;;;;;;5071364;28;46785;-64
2022/01/14 04:52:06;;;;;;;;;75.75;59.25;;;;;;;;5073555;27;45437;-65
2022/01/14 04:54:32;;;;;;;;;71.25;55.00;;;;;;;;5070722;27;45530;-64
2022/01/14 04:56:57;;;;;;;;;75.25;59.25;;;;;;;;5071308;28;45415;-64
2022/01/14 04:59:23;;;;;;;;;28.00;24.25;;;;;;;;5071374;27;45940;-64
2022/01/14 05:01:48;;;;;;;;;74.75;58.75;;;;;;;;5071090;28;45472;-64
2022/01/14 05:04:13;;;;;;;;;75.75;60.75;;;;;;;;5071448;28;45414;-65
2022/01/14 05:06:40;;;;;;;;;70.75;56.50;;;;;;;;5069846;28;45568;-64
2022/01/14 05:09:16;;;;;;;;;71.00;57.25;;;;;;;;5070159;28;47653;-65
2022/01/14 05:11:51;;;;;;;;;71.00;58.50;;;;;;;;5070243;28;46341;-64
2022/01/14 05:14:16;;;;;;;;;72.25;56.25;;;;;;;;5070684;27;45356;-64
2022/01/14 05:16:41;;;;;;;;;72.00;56.00;;;;;;;;5065230;28;45347;-64
2022/01/14 05:19:06;;;;;;;;;70.50;57.50;;;;;;;;5069949;27;47638;-65
2022/01/14 05:21:32;;;;;;;;;78.75;61.50;;;;;;;;5070911;28;45557;-64
2022/01/14 05:24:00;;;;;;;;;73.50;58.75;;;;;;;;5071530;27;45522;-64
2022/01/14 05:26:25;;;;;;;;;67.75;54.00;;;;;;;;5067366;27;45593;-66
2022/01/14 05:28:50;;;;;;;;;72.75;59.25;;;;;;;;5055173;28;48615;-64
2022/01/14 05:31:16;;;;;;;;;74.00;60.00;;;;;;;;5065320;28;46556;-64
2022/01/14 05:33:42;;;;;;;;;69.75;58.75;;;;;;;;5062442;28;45420;-64
2022/01/14 05:36:07;;;;;;;;;72.25;59.00;;;;;;;;5066272;28;45602;-64
2022/01/14 05:38:33;;;;;;;;;73.25;59.50;;;;;;;;5064228;28;46443;-65
2022/01/14 05:40:58;;;;;;;;;71.75;59.50;;;;;;;;5063008;27;45229;-65
2022/01/14 05:43:23;;;;;;;;;74.75;60.75;;;;;;;;5068605;28;47167;-65
2022/01/14 05:45:48;;;;;;;;;70.25;58.00;;;;;;;;5070559;27;45766;-64
2022/01/14 05:48:14;;;;;;;;;74.75;60.75;;;;;;;;5067181;28;45703;-66
2022/01/14 05:50:39;;;;;;;;;70.75;56.50;;;;;;;;5067632;28;45415;-65
2022/01/14 05:53:06;;;;;;;;;74.00;56.25;;;;;;;;5068021;28;45639;-67
2022/01/14 05:55:32;;;;;;;;;75.75;60.25;;;;;;;;5060821;28;45893;-65
2022/01/14 05:57:57;;;;;;;;;70.75;58.00;;;;;;;;5071048;28;45403;-64
2022/01/14 06:00:22;;;;;;;;;71.25;56.00;;;;;;;;5070190;28;45538;-65
2022/01/14 06:02:48;;;;;;;;;67.00;55.50;;;;;;;;5068156;28;45480;-64
2022/01/14 06:05:14;;;;;;;;;75.00;60.25;;;;;;;;5069254;27;45498;-64
2022/01/14 06:07:39;;;;;;;;;79.00;60.25;;;;;;;;5070251;28;46178;-65
2022/01/14 06:10:05;;;;;;;;;71.25;59.00;;;;;;;;5072144;27;45963;-64
2022/01/14 06:12:30;;;;;;;;;74.00;59.00;;;;;;;;5069939;27;45367;-65
2022/01/14 06:14:55;;;;;;;;;67.25;57.50;;;;;;;;5068271;28;46127;-65
2022/01/14 06:17:24;;;;;;;;;54.50;44.50;;;;;;;;5066738;28;48555;-65
2022/01/14 06:19:49;;;;;;;;;46.25;36.00;;;;;;;;5067878;28;45459;-64
2022/01/14 06:22:14;;;;;;;;;73.25;59.00;;;;;;;;5071218;27;45527;-65
2022/01/14 06:24:39;;;;;;;;;65.00;54.00;;;;;;;;5069222;28;45475;-64
2022/01/14 06:27:05;;;;;;;;;64.50;53.00;;;;;;;;5068487;28;47636;-64
2022/01/14 06:29:30;;;;;;;;;75.50;59.00;;;;;;;;5068373;28;45337;-63
2022/01/14 06:31:55;;;;;;;;;70.75;57.50;;;;;;;;5067825;28;45402;-66
2022/01/14 06:34:20;;;;;;;;;74.00;57.50;;;;;;;;5068436;28;45436;-66
2022/01/14 06:36:45;;;;;;;;;64.25;48.00;;;;;;;;5065762;28;47664;-66
2022/01/14 06:39:11;;;;;;;;;71.50;54.75;;;;;;;;5066808;28;45646;-66
2022/01/14 06:41:37;;;;;;;;;76.75;59.75;;;;;;;;5070166;27;45584;-66
2022/01/14 06:44:03;;;;;;;;;74.75;59.75;;;;;;;;5068340;27;45401;-65
2022/01/14 06:46:28;;;;;;;;;69.50;54.50;;;;;;;;5071255;28;45386;-65
2022/01/14 06:48:53;;;;;;;;;72.75;59.75;;;;;;;;5069038;28;45495;-64
2022/01/14 06:51:19;;;;;;;;;32.50;23.50;;;;;;;;5067024;27;45667;-64
2022/01/14 06:53:44;;;;;;;;;64.50;52.00;;;;;;;;5069526;27;45595;-64
2022/01/14 06:56:14;;;;;;;;;71.75;57.00;;;;;;;;5068777;28;45674;-64
2022/01/14 06:58:39;;;;;;;;;69.50;57.75;;;;;;;;5069043;27;45648;-64
2022/01/14 07:01:04;;;;;;;;;68.50;56.75;;;;;;;;5075876;27;45448;-64
2022/01/14 07:03:30;;;;;;;;;69.75;52.00;;;;;;;;5072590;28;45516;-64
2022/01/14 07:05:55;;;;;;;;;60.25;49.25;;;;;;;;5073170;27;45781;-63
2022/01/14 07:08:20;;;;;;;;;59.25;49.75;;;;;;;;5071892;28;45444;-64
2022/01/14 07:10:46;;;;;;;;;62.00;51.00;;;;;;;;5071163;28;45522;-64
2022/01/14 07:13:11;;;;;;;;;61.25;50.50;;;;;;;;5072136;28;45623;-64
2022/01/14 07:15:36;;;;;;;;;60.50;50.50;;;;;;;;5072799;28;45519;-65
2022/01/14 07:18:02;;;;;;;;;58.50;46.50;;;;;;;;5072102;28;45908;-65
2022/01/14 07:20:28;;;;;;;;;58.50;46.00;;;;;;;;5069083;28;45477;-65
2022/01/14 07:22:53;;;;;;;;;63.00;48.75;;;;;;;;5072648;27;45938;-64
2022/01/14 07:25:19;;;;;;;;;55.75;47.00;;;;;;;;5074526;27;45424;-65
2022/01/14 07:27:44;;;;;;;;;52.25;46.25;;;;;;;;5054375;28;45445;-65
2022/01/14 07:30:10;;;;;;;;;53.75;47.50;;;;;;;;5058574;28;45979;-65
2022/01/14 07:32:35;;;;;;;;;59.50;51.00;;;;;;;;5060416;28;46105;-65
2022/01/14 07:35:02;;;;;;;;;59.00;46.75;;;;;;;;5071798;27;46105;-64
2022/01/14 07:37:27;;;;;;;;;63.75;51.50;;;;;;;;5073330;28;45983;-65
2022/01/14 07:39:53;;;;;;;;;59.00;46.75;;;;;;;;5070514;28;45673;-65
2022/01/14 07:42:18;;;;;;;;;61.25;48.25;;;;;;;;5067046;28;45585;-66
2022/01/14 07:44:43;;;;;;;;;65.25;51.25;;;;;;;;5072191;27;45611;-64
2022/01/14 07:47:08;;;;;;;;;66.75;53.25;;;;;;;;5072541;27;45501;-65
2022/01/14 07:49:34;;;;;;;;;62.25;51.50;;;;;;;;5073144;28;45570;-65
2022/01/14 07:51:59;;;;;;;;;57.25;45.50;;;;;;;;5071000;27;47576;-66
2022/01/14 07:54:25;;;;;;;;;63.75;53.25;;;;;;;;5072504;27;45483;-65
2022/01/14 07:56:52;;;;;;;;;59.25;50.25;;;;;;;;5070215;28;45551;-66
2022/01/14 07:59:19;;;;;;;;;59.50;49.75;;;;;;;;5070329;28;45883;-65
2022/01/14 08:01:45;;;;;;;;;59.75;48.75;;;;;;;;5071703;28;45348;-66
2022/01/14 08:04:12;;;;;;;;;61.50;48.00;;;;;;;;5068406;28;46850;-66
2022/01/14 08:06:44;;;;;;;;;65.75;53.00;;;;;;;;5067994;28;46004;-65
2022/01/14 08:09:09;;;;;;;;;62.00;49.75;;;;;;;;5071401;27;45614;-66
2022/01/14 08:11:35;;;;;;;;;64.75;53.25;;;;;;;;5068656;28;45555;-66
2022/01/14 08:14:00;;;;;;;;;59.50;51.50;;;;;;;;5064074;28;45451;-66
2022/01/14 08:16:25;;;;;;;;;63.25;52.25;;;;;;;;5072124;27;45403;-65
2022/01/14 08:18:51;;;;;;;;;60.50;50.00;;;;;;;;5068069;28;45883;-66
2022/01/14 08:21:16;;;;;;;;;59.25;47.75;;;;;;;;5072581;27;45982;-66
2022/01/14 08:23:42;;;;;;;;;67.00;52.50;;;;;;;;5070719;27;47485;-66
2022/01/14 08:26:07;;;;;;;;;64.25;52.75;;;;;;;;5068446;27;45330;-66
2022/01/14 08:28:32;;;;;;;;;59.50;49.75;;;;;;;;5058876;28;45596;-66
2022/01/14 08:30:57;;;;;;;;;62.75;50.75;;;;;;;;5070125;27;45565;-66
2022/01/14 08:33:23;;;;;;;;;65.00;52.50;;;;;;;;5068288;28;46916;-66
2022/01/14 08:35:48;;;;;;;;;63.75;51.75;;;;;;;;5066853;27;45517;-65
2022/01/14 08:38:13;;;;;;;;;64.25;49.75;;;;;;;;5071165;28;45522;-66
2022/01/14 08:40:39;;;;;;;;;70.25;50.50;;;;;;;;5072340;28;45337;-66
2022/01/14 08:43:04;;;;;;;;;65.00;53.25;;;;;;;;5071280;28;46722;-66
2022/01/14 08:45:30;;;;;;;;;64.75;53.00;;;;;;;;5072118;27;45468;-66
2022/01/14 08:47:55;;;;;;;;;66.25;53.75;;;;;;;;5072417;28;45598;-66
2022/01/14 08:50:34;;;;;;;;;61.75;52.25;;;;;;;;5070240;28;45442;-66
2022/01/14 08:52:59;;;;;;;;;65.75;53.25;;;;;;;;5070028;28;45451;-66
2022/01/14 08:55:24;;;;;;;;;64.00;52.00;;;;;;;;5074415;28;45568;-66
2022/01/14 08:57:50;;;;;;;;;63.50;51.25;;;;;;;;5072206;27;45425;-66
2022/01/14 09:00:16;;;;;;;;;63.50;51.75;;;;;;;;5072078;27;45502;-66
2022/01/14 09:02:41;;;;;;;;;68.25;53.75;;;;;;;;5070390;28;45988;-66
2022/01/14 09:05:07;;;;;;;;;65.50;54.25;;;;;;;;5070837;28;46284;-65
2022/01/14 09:07:32;;;;;;;;;61.50;53.00;;;;;;;;5071335;27;45536;-64
2022/01/14 09:09:57;;;;;;;;;63.50;51.50;;;;;;;;5070759;28;45377;-65
2022/01/14 09:12:22;;;;;;;;;44.25;38.75;;;;;;;;5068831;28;49215;-65
2022/01/14 09:14:48;;;;;;;;;67.25;54.25;;;;;;;;5071547;28;45526;-65
2022/01/14 09:17:13;;;;;;;;;67.50;54.50;;;;;;;;5071718;27;45645;-66
2022/01/14 09:19:42;;;;;;;;;14.50;9.25;;;;;;;;5069881;28;45303;-66
2022/01/14 09:22:08;;;;;;;;;68.00;54.25;;;;;;;;5071808;27;46130;-65
2022/01/14 09:24:34;;;;;;;;;62.50;50.75;;;;;;;;5070040;28;45510;-66
2022/01/14 09:26:59;;;;;;;;;64.25;51.50;;;;;;;;5067701;28;45566;-65
2022/01/14 09:29:24;;;;;;;;;64.50;50.25;;;;;;;;5066164;28;45571;-65
2022/01/14 09:31:49;;;;;;;;;60.75;48.50;;;;;;;;5060026;28;47238;-65
2022/01/14 09:34:14;;;;;;;;;72.50;56.25;;;;;;;;5073311;27;45521;-66
2022/01/14 09:36:40;;;;;;;;;77.50;62.00;;;;;;;;5070016;28;49647;-65
2022/01/14 09:39:05;;;;;;;;;74.50;60.25;;;;;;;;5072315;27;45602;-65
2022/01/14 09:41:31;;;;;;;;;83.75;69.25;;;;;;;;5070898;27;46415;-66
2022/01/14 09:43:56;;;;;;;;;73.25;57.50;;;;;;;;5071242;28;45438;-65
2022/01/14 09:46:22;;;;;;;;;69.50;54.75;;;;;;;;5073428;28;45491;-65
2022/01/14 09:48:49;;;;;;;;;79.00;67.00;;;;;;;;5071095;27;45729;-65
2022/01/14 09:51:14;;;;;;;;;68.25;55.25;;;;;;;;5069814;28;47396;-65
2022/01/14 09:53:40;;;;;;;;;70.50;54.50;;;;;;;;5070046;27;45420;-65
2022/01/14 09:56:05;;;;;;;;;69.25;54.50;;;;;;;;5070997;28;45608;-64
2022/01/14 09:58:37;;;;;;;;;66.00;54.00;;;;;;;;5072389;28;45491;-65
2022/01/14 10:01:13;;;;;;;;;65.75;53.50;;;;;;;;5071241;27;48364;-65
2022/01/14 10:03:51;;;;;;;;;66.25;52.00;;;;;;;;5069650;28;45416;-65
2022/01/14 10:06:35;;;;;;;;;57.75;47.00;;;;;;;;5070896;27;45749;-64
2022/01/14 10:09:03;;;;;;;;;56.75;46.00;;;;;;;;5069737;28;45516;-65
2022/01/14 10:11:28;;;;;;;;;53.75;44.00;;;;;;;;5069625;28;46474;-65
2022/01/14 10:14:02;;;;;;;;;56.75;45.50;;;;;;;;5068400;28;45566;-65
2022/01/14 10:16:28;;;;;;;;;53.50;44.50;;;;;;;;5067471;27;45505;-64
2022/01/14 10:18:53;;;;;;;;;50.50;41.50;;;;;;;;5071313;28;46001;-64
2022/01/14 10:21:18;;;;;;;;;54.75;43.25;;;;;;;;5068621;27;47343;-65
2022/01/14 10:23:47;;;;;;;;;52.75;43.25;;;;;;;;5070639;27;45499;-65
2022/01/14 10:26:14;;;;;;;;;46.75;40.00;;;;;;;;5069183;28;45762;-64
2022/01/14 10:28:43;;;;;;;;;52.50;43.00;;;;;;;;5069092;28;45416;-64
2022/01/14 10:31:09;;;;;;;;;51.00;42.75;;;;;;;;5070054;28;46136;-64
2022/01/14 10:33:34;;;;;;;;;50.75;42.00;;;;;;;;5069006;28;45451;-63
2022/01/14 10:36:00;;;;;;;;;53.00;44.00;;;;;;;;5069144;28;45470;-63
2022/01/14 10:38:26;;;;;;;;;50.25;42.25;;;;;;;;5070658;28;45511;-63
2022/01/14 10:40:53;;;;;;;;;54.25;43.50;;;;;;;;5070290;28;46027;-64
2022/01/14 10:43:21;;;;;;;;;53.25;42.75;;;;;;;;5072328;27;45394;-64
2022/01/14 10:45:47;;;;;;;;;51.00;43.00;;;;;;;;5070434;27;45479;-64
2022/01/14 10:48:16;;;;;;;;;52.25;44.00;;;;;;;;5070147;27;45662;-63
2022/01/14 10:50:41;;;;;;;;;51.50;42.25;;;;;;;;5069967;27;45627;-63
2022/01/14 10:53:17;;;;;;;;;42.75;35.75;;;;;;;;5069690;27;45465;-65
2022/01/14 10:55:47;;;;;;;;;55.75;45.00;;;;;;;;5067202;28;45514;-64
2022/01/14 10:58:15;;;;;;;;;56.75;45.00;;;;;;;;5071543;28;45384;-64
2022/01/14 11:00:42;;;;;;;;;55.25;46.25;;;;;;;;5067964;28;48417;-63
2022/01/14 11:03:07;;;;;;;;;56.75;47.00;;;;;;;;5069963;27;45586;-64
2022/01/14 11:05:34;;;;;;;;;58.50;47.25;;;;;;;;5069787;28;45547;-64
2022/01/14 11:08:00;;;;;;;;;56.25;47.25;;;;;;;;5068810;28;45448;-65
2022/01/14 11:10:27;;;;;;;;;57.00;47.25;;;;;;;;5070679;28;48292;-65
2022/01/14 11:12:53;;;;;;;;;54.00;45.75;;;;;;;;5061354;28;45487;-65
2022/01/14 11:15:19;;;;;;;;;58.25;47.25;;;;;;;;5062233;28;45491;-63
2022/01/14 11:17:49;;;;;;;;;62.25;48.75;;;;;;;;5059489;28;45567;-64
2022/01/14 11:20:15;;;;;;;;;61.00;48.75;;;;;;;;5069558;27;46413;-64
2022/01/14 11:25:24;;;;;;;;;58.75;48.50;;;;;;;;5067538;28;45560;-63
2022/01/14 11:27:56;;;;;;;;;62.00;50.25;;;;;;;;5070200;27;45818;-62
2022/01/14 11:30:30;;;;;;;;;55.25;46.00;;;;;;;;5069799;27;46022;-63
2022/01/14 11:32:57;;;;;;;;;55.75;46.25;;;;;;;;5068022;28;45614;-63
2022/01/14 11:35:23;;;;;;;;;58.25;48.00;;;;;;;;5066492;28;45580;-62
2022/01/14 11:37:49;;;;;;;;;59.00;47.50;;;;;;;;5063121;28;45661;-64
2022/01/14 11:40:15;;;;;;;;;58.00;46.75;;;;;;;;5065268;28;46419;-64
2022/01/14 11:42:43;;;;;;;;;63.50;49.50;;;;;;;;5069373;27;45442;-64
2022/01/14 11:45:09;;;;;;;;;64.00;50.25;;;;;;;;5068614;28;45484;-65
2022/01/14 11:47:43;;;;;;;;;56.00;45.00;;;;;;;;5068427;28;45566;-64
2022/01/14 11:50:21;;;;;;;;;59.75;47.00;;;;;;;;5063183;28;46609;-64
2022/01/14 11:52:48;;;;;;;;;58.00;46.25;;;;;;;;5071070;28;45488;-64
2022/01/14 11:55:23;;;;;;;;;63.50;50.25;;;;;;;;5069019;28;46187;-64
2022/01/14 11:57:49;;;;;;;;;61.50;50.00;;;;;;;;5062927;28;45723;-65
2022/01/14 12:00:27;;;;;;;;;59.00;47.25;;;;;;;;5065639;28;47494;-64
2022/01/14 12:02:58;;;;;;;;;66.25;51.50;;;;;;;;5066188;28;45401;-64
2022/01/14 12:05:28;;;;;;;;;59.25;48.75;;;;;;;;5068530;28;48049;-63
2022/01/14 12:08:05;;;;;;;;;55.50;46.25;;;;;;;;5072570;28;45542;-63
2022/01/14 12:10:32;;;;;;;;;60.50;49.50;;;;;;;;5059683;28;46668;-64
2022/01/14 12:16:03;;;;;;;;;61.75;48.25;;;;;;;;4989229;28;45507;-64
2022/01/14 12:18:47;;;;;;;;;65.50;51.50;;;;;;;;4990411;28;45355;-64
2022/01/14 12:21:13;;;;;;;;;59.75;49.50;;;;;;;;4989039;28;46222;-65
2022/01/14 12:23:38;;;;;;;;;59.25;47.25;;;;;;;;4989787;28;45740;-64
2022/01/14 12:26:19;;;;;;;;;59.50;48.25;;;;;;;;4974686;28;46049;-65
2022/01/14 12:28:45;;;;;;;;;58.00;47.00;;;;;;;;4986858;28;45436;-64
2022/01/14 12:31:11;;;;;;;;;64.75;50.75;;;;;;;;4991165;28;45823;-64
2022/01/14 12:33:40;;;;;;;;;59.25;48.00;;;;;;;;4989833;28;45407;-63
2022/01/14 12:36:11;;;;;;;;;59.00;47.00;;;;;;;;4989997;28;45631;-64
2022/01/14 12:38:40;;;;;;;;;60.00;47.50;;;;;;;;4989564;28;45615;-65
2022/01/14 12:41:16;;;;;;;;;59.50;47.50;;;;;;;;4980970;28;45592;-65
2022/01/14 12:43:48;;;;;;;;;55.75;44.00;;;;;;;;4973189;28;45509;-65
2022/01/14 12:46:38;;;;;;;;;52.00;44.25;;;;;;;;4997473;28;45541;-63
2022/01/14 12:49:14;;;;;;;;;51.75;42.25;;;;;;;;5073454;28;45531;-63
2022/01/14 12:51:40;;;;;;;;;47.75;40.25;;;;;;;;5070913;28;48616;-64
2022/01/14 12:54:10;;;;;;;;;50.25;41.50;;;;;;;;5069857;28;45563;-64
2022/01/14 12:56:36;;;;;;;;;50.00;41.75;;;;;;;;5069008;28;45714;-64
2022/01/14 12:59:01;;;;;;;;;50.50;41.25;;;;;;;;5070280;28;45639;-65
2022/01/14 13:01:31;;;;;;;;;48.50;40.00;;;;;;;;5072920;28;46447;-64
2022/01/14 13:03:57;;;;;;;;;50.50;41.00;;;;;;;;5070890;28;45647;-65
2022/01/14 13:06:22;;;;;;;;;48.25;39.75;;;;;;;;5070134;28;45850;-65
2022/01/14 13:08:57;;;;;;;;;54.25;44.00;;;;;;;;5071709;28;45443;-65
2022/01/14 13:11:24;;;;;;;;;45.75;38.00;;;;;;;;5070798;27;47650;-65
2022/01/14 13:13:59;;;;;;;;;50.75;42.00;;;;;;;;5069678;28;45570;-65
2022/01/14 13:16:25;;;;;;;;;48.50;39.75;;;;;;;;5069822;28;45612;-65
2022/01/14 13:18:53;;;;;;;;;47.75;40.50;;;;;;;;5068364;28;45713;-65
2022/01/14 13:21:19;;;;;;;;;50.25;40.00;;;;;;;;5069296;27;47197;-65
2022/01/14 13:23:47;;;;;;;;;51.00;43.00;;;;;;;;5068049;28;45864;-65
2022/01/14 13:26:12;;;;;;;;;53.00;44.00;;;;;;;;5071205;27;45548;-65
2022/01/14 13:28:37;;;;;;;;;48.50;40.00;;;;;;;;5071773;28;45431;-64
2022/01/14 13:31:07;;;;;;;;;54.00;43.75;;;;;;;;5072208;28;46124;-65
2022/01/14 13:33:32;;;;;;;;;55.50;45.25;;;;;;;;5070470;27;45494;-65
2022/01/14 13:35:58;;;;;;;;;55.00;46.00;;;;;;;;5070891;28;45522;-65
2022/01/14 13:38:23;;;;;;;;;51.50;42.00;;;;;;;;5070948;27;45515;-65
2022/01/14 13:40:59;;;;;;;;;51.00;42.25;;;;;;;;5069393;28;46142;-66
2022/01/14 13:43:30;;;;;;;;;53.75;42.50;;;;;;;;5068510;28;45459;-65
2022/01/14 13:46:22;;;;;;;;;54.50;45.50;;;;;;;;5068317;28;45495;-65
2022/01/14 13:48:50;;;;;;;;;53.50;44.50;;;;;;;;5066732;27;45668;-65
2022/01/14 13:51:19;;;;;;;;;56.00;46.00;;;;;;;;5070500;27;45751;-65
2022/01/14 13:53:46;;;;;;;;;56.25;44.75;;;;;;;;5070157;27;45628;-66
2022/01/14 13:56:12;;;;;;;;;52.25;43.25;;;;;;;;5070591;27;45485;-66
2022/01/14 13:58:40;;;;;;;;;52.00;43.00;;;;;;;;5069663;28;46066;-65
2022/01/14 14:01:07;;;;;;;;;49.50;42.25;;;;;;;;5070798;28;48910;-65
2022/01/14 14:03:43;;;;;;;;;53.50;44.00;;;;;;;;5069062;27;45803;-65
2022/01/14 14:06:17;;;;;;;;;56.00;46.50;;;;;;;;5068945;28;45412;-65
2022/01/14 14:16:54;;;;;;;;;61.25;48.75;;;;;;;;5070426;28;45564;-66
2022/01/14 14:19:19;;;;;;;;;56.50;46.00;;;;;;;;5071056;28;45582;-65
2022/01/14 14:21:45;;;;;;;;;53.50;44.75;;;;;;;;5069100;28;47693;-65
2022/01/14 14:24:13;;;;;;;;;56.75;46.00;;;;;;;;5070053;27;45554;-65
2022/01/14 14:26:42;;;;;;;;;56.25;46.00;;;;;;;;5069982;27;45531;-65
2022/01/14 14:29:20;;;;;;;;;56.25;44.75;;;;;;;;5070174;27;45781;-65
2022/01/14 14:31:45;;;;;;;;;54.00;45.25;;;;;;;;5070058;28;45501;-65
2022/01/14 14:34:10;;;;;;;;;50.25;42.25;;;;;;;;5071840;27;45562;-65
2022/01/14 14:36:36;;;;;;;;;53.00;45.25;;;;;;;;5068597;28;45558;-65
2022/01/14 14:39:03;;;;;;;;;54.75;45.25;;;;;;;;5070179;27;45701;-65
2022/01/14 14:41:28;;;;;;;;;56.00;46.00;;;;;;;;5069066;27;45722;-64
2022/01/14 14:43:53;;;;;;;;;52.75;42.75;;;;;;;;5069970;28;45429;-64
2022/01/14 14:46:18;;;;;;;;;55.00;44.50;;;;;;;;5070630;28;45437;-64
2022/01/14 14:48:44;;;;;;;;;55.00;45.00;;;;;;;;5070034;27;45426;-65
2022/01/14 14:51:09;;;;;;;;;56.00;46.25;;;;;;;;5069348;28;46488;-65